MMUNMKJP

Guest
Details From MMUN - Cancun Intl
To MKJP - Norman Manley Intl
Flight Number -
Tags Generated
Created
Modified
Stats Distance 601 nm / 1,113 km
Max Altitude 0 ft / 0 m
Waypoints 4
Social Downloads 2
Likes 0
Share VATSIM

Download

Looking for another format? Having issues loading an existing format? Contact us
Advertisement - Login to hide

Notes

Generated

Route

MMUN MAMBI MLY04 MKJP

ID Type Via Altitude Latitude Longitude Leg Dist Tot Dist Heading (true) Name
O MMUN APT - 0 ft / 0 m 21.05496˚ -86.88084˚ - 0 nm - -
MAMBI FIX - 0 ft / 0 m 19.45000˚ -82.04667˚ 288 nm 288 nm 109° / 110° -
MLY04 FIX - 0 ft / 0 m 17.95533˚ -76.84251˚ 309 nm 598 nm 106° / 108° -
O MKJP APT - 0 ft / 0 m 17.94026˚ -76.79945˚ 2 nm 600 nm 110° / 110° -

Altitude Profile

Advertisement - Login to hide

Weather


0- 5 10 15 20 25 30 35+ Temperature / ° C

Clouds and Precipitation
Forecast for 2017-12-13 18:00 UTC. Updated 25 minutes ago

Ground ~20,000 ft ~40,000 ft Winds

MMUN

Details ICAO MMUN (CUN)
Name Cancun International
Region Mexico
Timezone America/Cancun (UTC-5.0)
Stats Elevation 24 ft / 7 m (AMSL)
Location 21.042287° -86.873333°
Runways 2
Magnetic Variation 1.880° W

METAR

MMUN 131649Z 32006KT 7SM FEW015 25/14 A3013 RMK 8/100

Decode

TAF

Not found

Departure Runways

ID Width Length Bearing (true) Bearing (mag) Surface Threshold Offset Overrun Length
12L 148 ft / 45 m 9,150 ft / 2,789 m 123.62° 125.50° Asphalt 0 ft / 0 m 200 ft / 61 m
12R 190 ft / 58 m 11,459 ft / 3,493 m 123.84° 125.72° Asphalt 0 ft / 0 m 200 ft / 61 m
30L 190 ft / 58 m 11,459 ft / 3,493 m 303.85° 305.73° Asphalt 0 ft / 0 m 200 ft / 61 m
30R 148 ft / 45 m 9,150 ft / 2,789 m 303.63° 305.51° Asphalt 0 ft / 0 m 200 ft / 61 m

MKJP

Details ICAO MKJP (KIN)
Name Norman Manley Intl
Region Jamaica
Timezone Unknown (UTC+0.0)
Stats Elevation 10 ft / 3 m (AMSL)
Location 17.935665° -76.787560°
Runways 1
Magnetic Variation 7.541° W

METAR

MKJP 131700Z 01010KT 9999 FEW020 BKN028 27/23 Q1014

Decode

TAF

TAF MKJP 131115Z 1312/1412 36018KT 9999 FEW020 BKN032 BECMG 1314/1316 10020KT PROB40 TEMPO 1318/1322 8000 SHRA SCT018 BKN030 BECMG 1401/1403 36010KT FEW022 SCT038

Decode

Destination Runways

ID Width Length Bearing (true) Bearing (mag) Surface Threshold Offset Overrun Length
12 150 ft / 46 m 8,912 ft / 2,717 m 112.09° 119.63° Asphalt 0 ft / 0 m 0 ft / 0 m
30 150 ft / 46 m 8,912 ft / 2,717 m 292.10° 299.64° Asphalt 0 ft / 0 m 0 ft / 0 m

Approach Navaids

Runway Type Ident Frequency Range Bearing (true) Bearing (mag) Slope Elevation
12 Localiser IMLY 109.10 MHz 18 nm / 33 km 115.09° 122.63° - 10 ft / 3 m (AMSL)
12 Glidescope IMLY 109.10 MHz 10 nm / 19 km 115.09° 122.63° 3.00° 8 ft / 2 m (AMSL)

Popular Alternatives